Big Bear Station Historical Data
Daily Summary for January 17, 2019 Units:  English    Metric   Both
Next Day »
Daily Weekly Monthly Yearly Custom
  High: Low: Average:
Temperature: 42.1 °F 33.4 °F 38.2 °F
Dew Point: 40.8 °F 32.4 °F 37.2 °F
Humidity: 99% 90% 96%
Wind Speed: 8.9mph 0.0mph 2.9mph
Wind Gust: 18.1mph - -
Wind- - SW
Pressure: 23.58 in 23.49 in -
Precipitation: 2.38 in    
Historical Graphs
 
 
Tabular Data for January 17, 2019
Time Temperature Dew Point Pressure Wind Wind Speed Wind Gust Humidity Rainfall Rate (Hourly)
00:02 39.4 °F 39.1 °F 23.53 in SW 2.7 mph -999.0 mph 99% 0.00 in
00:17 39.4 °F 39.1 °F 23.52 in South 7.3 mph -999.0 mph 99% 0.00 in
00:32 39.2 °F 38.7 °F 23.52 in South 5.8 mph -999.0 mph 98% 0.00 in
00:48 39.0 °F 38.5 °F 23.52 in NW 3.2 mph -999.0 mph 98% 0.00 in
01:03 39.0 °F 38.5 °F 23.51 in SE 5.3 mph -999.0 mph 98% 0.00 in
01:19 39.2 °F 38.7 °F 23.51 in SSE 6.3 mph -999.0 mph 98% 0.00 in
01:34 39.2 °F 38.7 °F 23.51 in ESE 4.7 mph -999.0 mph 98% 0.00 in
01:49 39.4 °F 38.9 °F 23.51 in South 3.2 mph -999.0 mph 98% 0.00 in
02:05 39.2 °F 38.7 °F 23.51 in SSW 3.2 mph -999.0 mph 98% 0.00 in
02:20 39.0 °F 38.5 °F 23.51 in SSW 3.7 mph 18.1 mph 98% 0.00 in
05:34 37.8 °F 37.5 °F 23.49 in South 7.3 mph -999.0 mph 99% 0.00 in
05:49 38.3 °F 38.0 °F 23.49 in South 4.2 mph -999.0 mph 99% 0.00 in
06:05 37.9 °F 37.6 °F 23.49 in West 7.8 mph -999.0 mph 99% 0.00 in
06:20 38.1 °F 37.8 °F 23.49 in NNW 2.2 mph -999.0 mph 99% 0.00 in
06:35 38.3 °F 38.0 °F 23.49 in SE 2.2 mph -999.0 mph 99% 0.00 in
06:50 38.1 °F 37.8 °F 23.49 in ESE 3.2 mph -999.0 mph 99% 0.00 in
07:06 38.3 °F 38.0 °F 23.49 in Calm   -999.0 mph 99% 0.00 in
07:21 38.1 °F 37.8 °F 23.51 in SSE 2.7 mph -999.0 mph 99% 0.00 in
07:36 38.3 °F 38.0 °F 23.51 in WNW 3.2 mph -999.0 mph 99% 0.00 in
07:52 39.0 °F 38.7 °F 23.51 in WNW 2.7 mph -999.0 mph 99% 0.00 in
08:07 39.2 °F 38.9 °F 23.51 in WSW 2.7 mph -999.0 mph 99% 0.00 in
08:22 39.0 °F 38.7 °F 23.50 in Calm   -999.0 mph 99% 0.00 in
08:37 39.2 °F 38.9 °F 23.51 in ENE 1.7 mph -999.0 mph 99% 0.00 in
08:53 39.6 °F 39.1 °F 23.53 in Calm   -999.0 mph 98% 0.00 in
09:08 39.7 °F 38.9 °F 23.54 in South 2.2 mph -999.0 mph 97% 0.00 in
09:23 40.1 °F 39.3 °F 23.53 in Calm   -999.0 mph 97% 0.00 in
09:38 39.9 °F 39.1 °F 23.55 in Calm   -999.0 mph 97% 0.00 in
09:53 39.7 °F 38.9 °F 23.55 in West 1.7 mph -999.0 mph 97% 0.00 in
10:09 39.4 °F 38.6 °F 23.56 in Calm   -999.0 mph 97% 0.00 in
10:24 39.0 °F 38.2 °F 23.57 in SSE 2.7 mph -999.0 mph 97% 0.00 in
10:40 39.2 °F 38.4 °F 23.57 in ENE 2.7 mph -999.0 mph 97% 0.00 in
10:55 39.6 °F 38.8 °F 23.57 in West 3.7 mph -999.0 mph 97% 0.00 in
11:10 39.6 °F 38.8 °F 23.57 in SSW 3.2 mph -999.0 mph 97% 0.00 in
11:25 39.7 °F 38.9 °F 23.56 in West 1.7 mph -999.0 mph 97% 0.00 in
11:41 40.3 °F 39.8 °F 23.56 in NE 1.1 mph -999.0 mph 98% 0.00 in
11:56 40.5 °F 39.7 °F 23.56 in SW 4.2 mph -999.0 mph 97% 0.00 in
12:11 40.6 °F 39.5 °F 23.55 in NW 5.8 mph -999.0 mph 96% 0.00 in
12:26 41.2 °F 40.1 °F 23.53 in NNW 3.2 mph -999.0 mph 96% 0.00 in
12:42 41.9 °F 40.6 °F 23.52 in SSE 4.7 mph -999.0 mph 95% 0.00 in
12:57 42.1 °F 40.8 °F 23.52 in NW 2.7 mph -999.0 mph 95% 0.00 in
13:13 41.5 °F 40.2 °F 23.51 in ESE 6.3 mph -999.0 mph 95% 0.00 in
13:28 41.5 °F 40.2 °F 23.52 in Calm   -999.0 mph 95% 0.00 in
13:43 41.9 °F 40.8 °F 23.52 in SSW 3.2 mph -999.0 mph 96% 0.00 in
13:59 40.8 °F 39.2 °F 23.52 in SSW 1.7 mph -999.0 mph 94% 0.00 in
14:14 40.8 °F 39.5 °F 23.52 in Calm   -999.0 mph 95% 0.00 in
14:30 40.5 °F 39.2 °F 23.52 in North 3.7 mph -999.0 mph 95% 0.00 in
14:45 40.1 °F 38.8 °F 23.51 in Calm   -999.0 mph 95% 0.00 in
15:00 40.3 °F 39.3 °F 23.51 in Calm   -999.0 mph 96% 0.00 in
15:15 41.2 °F 40.4 °F 23.52 in West 1.7 mph -999.0 mph 97% 0.00 in
15:30 41.0 °F 40.2 °F 23.53 in WSW 2.2 mph -999.0 mph 97% 0.00 in
15:46 40.3 °F 38.7 °F 23.54 in South 4.2 mph -999.0 mph 94% 0.00 in
16:01 39.6 °F 38.0 °F 23.54 in NE 1.7 mph -999.0 mph 94% 0.00 in
16:16 39.0 °F 37.7 °F 23.54 in NW 4.2 mph -999.0 mph 95% 0.00 in
16:31 38.8 °F 37.8 °F 23.55 in WNW 2.2 mph -999.0 mph 96% 0.00 in
16:46 38.3 °F 36.7 °F 23.56 in West 3.7 mph -999.0 mph 94% 0.00 in
17:02 37.9 °F 36.3 °F 23.56 in South 2.7 mph -999.0 mph 94% 0.00 in
17:17 37.2 °F 35.1 °F 23.56 in ESE 4.7 mph -999.0 mph 92% 0.00 in
17:32 37.0 °F 35.7 °F 23.56 in WSW 1.7 mph -999.0 mph 95% 0.00 in
17:48 36.7 °F 34.9 °F 23.55 in SSW 3.2 mph -999.0 mph 93% 0.00 in
18:03 36.1 °F 34.5 °F 23.55 in NW 8.9 mph -999.0 mph 94% 0.00 in
18:19 36.0 °F 34.2 °F 23.55 in East 2.7 mph -999.0 mph 93% 0.00 in
18:34 35.8 °F 34.2 °F 23.54 in NW 2.2 mph -999.0 mph 94% 0.00 in
18:49 35.4 °F 33.8 °F 23.55 in WNW 4.7 mph -999.0 mph 94% 0.00 in
19:05 35.4 °F 33.0 °F 23.55 in WSW 4.2 mph -999.0 mph 91% 0.00 in
19:20 35.6 °F 33.0 °F 23.54 in West 2.2 mph -999.0 mph 90% 0.00 in
19:36 35.1 °F 32.7 °F 23.54 in NW 4.7 mph -999.0 mph 91% 0.00 in
19:51 34.9 °F 32.5 °F 23.55 in NW 2.7 mph -999.0 mph 91% 0.00 in
20:07 34.5 °F 32.4 °F 23.55 in West 2.2 mph -999.0 mph 92% 0.00 in
20:22 34.2 °F 32.4 °F 23.54 in NNW 1.7 mph -999.0 mph 93% 0.00 in
20:37 34.0 °F 32.7 °F 23.55 in SW 2.2 mph -999.0 mph 95% 0.00 in
20:52 35.1 °F 34.1 °F 23.54 in SSE 2.7 mph -999.0 mph 96% 0.00 in
21:07 35.6 °F 34.8 °F 23.55 in WNW 6.8 mph -999.0 mph 97% 0.00 in
21:23 35.8 °F 34.8 °F 23.56 in NNW 6.8 mph -999.0 mph 96% 0.00 in
21:38 36.0 °F 35.0 °F 23.55 in NNW 2.2 mph -999.0 mph 96% 0.00 in
21:54 35.8 °F 35.0 °F 23.56 in South 4.2 mph -999.0 mph 97% 0.00 in
22:09 35.8 °F 35.0 °F 23.55 in South 1.7 mph -999.0 mph 97% 0.00 in
22:24 35.6 °F 34.8 °F 23.56 in WNW 3.7 mph -999.0 mph 97% 0.00 in
22:39 35.4 °F 34.6 °F 23.57 in Calm   -999.0 mph 97% 0.00 in
22:55 34.7 °F 33.9 °F 23.56 in Calm   -999.0 mph 97% 0.00 in
23:10 34.0 °F 33.2 °F 23.56 in Calm   -999.0 mph 97% 0.00 in
23:26 34.0 °F 33.5 °F 23.58 in NW 1.7 mph -999.0 mph 98% 0.00 in
23:41 34.0 °F 33.5 °F 23.58 in WNW 2.7 mph -999.0 mph 98% 0.00 in
23:56 33.4 °F 32.9 °F 23.57 in Calm   -999.0 mph 98% 0.00 in
Big Bear CA Weather